createdAt,value
2017-03-12T00:00:03.357Z,22.21
2017-03-12T00:01:02.919Z,22.2
2017-03-12T00:02:03.388Z,22.22
2017-03-12T00:03:03.079Z,22.22
2017-03-12T00:04:02.935Z,22.25
2017-03-12T00:05:02.967Z,22.28
2017-03-12T00:06:03.458Z,22.33
2017-03-12T00:07:03.363Z,22.39
2017-03-12T00:08:03.009Z,22.25
2017-03-12T00:09:03.374Z,22.27
2017-03-12T00:10:03.365Z,22.35
2017-03-12T00:11:03.422Z,22.27
2017-03-12T00:12:03.383Z,22.24
2017-03-12T00:13:03.445Z,22.27
2017-03-12T00:14:17.866Z,22.28
2017-03-12T00:15:03.413Z,22.3
2017-03-12T00:16:03.422Z,22.27
2017-03-12T00:17:03.071Z,22.27
2017-03-12T00:18:03.465Z,22.25
2017-03-12T00:19:03.123Z,22.25
2017-03-12T00:20:03.088Z,22.27
2017-03-12T00:21:03.129Z,22.3
2017-03-12T00:22:03.485Z,22.25
2017-03-12T00:23:03.613Z,22.3
2017-03-12T00:24:03.462Z,22.25
2017-03-12T00:25:03.111Z,22.36
2017-03-12T00:26:03.469Z,22.36
2017-03-12T00:27:03.133Z,22.36
2017-03-12T00:28:03.137Z,22.31
2017-03-12T00:29:03.134Z,22.28
2017-03-12T00:30:03.454Z,22.27
2017-03-12T00:31:03.187Z,22.3
2017-03-12T00:32:03.493Z,22.28
2017-03-12T00:33:03.176Z,22.3
2017-03-12T00:34:03.515Z,22.31
2017-03-12T00:35:03.565Z,22.3
2017-03-12T00:36:03.691Z,22.3
2017-03-12T00:37:03.179Z,22.3
2017-03-12T00:38:03.585Z,22.33
2017-03-12T00:39:03.635Z,22.3
2017-03-12T00:40:03.596Z,22.28
2017-03-12T00:41:03.598Z,22.33
2017-03-12T00:42:03.660Z,22.28
2017-03-12T00:43:03.567Z,22.3
2017-03-12T00:44:03.711Z,22.28
2017-03-12T00:45:03.620Z,22.31
2017-03-12T00:46:03.580Z,22.39
2017-03-12T00:47:02.794Z,22.43
2017-03-12T00:48:03.597Z,22.36
2017-03-12T00:49:03.655Z,22.28
2017-03-12T00:50:03.650Z,22.33
2017-03-12T00:51:03.683Z,22.3
2017-03-12T00:52:03.677Z,22.43
2017-03-12T00:53:03.666Z,22.45
2017-03-12T00:54:03.640Z,22.33
2017-03-12T00:55:03.686Z,22.28
2017-03-12T00:56:03.703Z,22.3
2017-03-12T00:57:03.645Z,22.3
2017-03-12T00:58:03.767Z,22.3
2017-03-12T00:59:03.661Z,22.33
2017-03-12T01:00:03.663Z,22.4
2017-03-12T01:01:03.771Z,22.36
2017-03-12T01:02:03.729Z,22.43
2017-03-12T01:03:03.784Z,22.31
2017-03-12T01:04:03.284Z,22.43
2017-03-12T01:05:03.744Z,22.4
2017-03-12T01:06:03.358Z,22.39
2017-03-12T01:07:03.856Z,22.37
2017-03-12T01:08:03.717Z,22.39
2017-03-12T01:09:03.369Z,22.42
2017-03-12T01:10:03.817Z,22.4
2017-03-12T01:11:03.792Z,22.4
2017-03-12T01:12:04.097Z,22.42
2017-03-12T01:13:03.782Z,22.39
2017-03-12T01:14:05.302Z,22.42
2017-03-12T01:15:03.807Z,22.3
2017-03-12T01:16:03.762Z,22.45
2017-03-12T01:17:03.822Z,22.37
2017-03-12T01:18:03.418Z,22.39
2017-03-12T01:19:03.823Z,22.42
2017-03-12T01:20:03.451Z,22.36
2017-03-12T01:21:03.039Z,22.43
2017-03-12T01:22:03.453Z,22.42
2017-03-12T01:23:03.844Z,22.51
2017-03-12T01:24:03.849Z,22.51
2017-03-12T01:25:03.866Z,22.42
2017-03-12T01:26:03.828Z,22.43
2017-03-12T01:27:03.885Z,22.42
2017-03-12T01:28:03.882Z,22.45
2017-03-12T01:29:03.882Z,22.45
2017-03-12T01:30:03.889Z,22.52
2017-03-12T01:31:03.845Z,22.43
2017-03-12T01:32:03.900Z,22.45
2017-03-12T01:33:03.848Z,22.42
2017-03-12T01:34:03.862Z,22.4
2017-03-12T01:35:03.938Z,22.58
2017-03-12T01:36:03.877Z,22.4
2017-03-12T01:37:03.537Z,22.4
2017-03-12T01:38:03.897Z,22.46
2017-03-12T01:39:03.996Z,22.52
2017-03-12T01:40:03.956Z,22.36
2017-03-12T01:41:03.943Z,22.42
2017-03-12T01:42:03.911Z,22.42
2017-03-12T01:43:03.924Z,22.47
2017-03-12T01:44:18.441Z,22.45
2017-03-12T01:45:03.578Z,22.46
2017-03-12T01:46:03.978Z,22.46
2017-03-12T01:47:03.945Z,22.47
2017-03-12T01:48:04.038Z,22.49
2017-03-12T01:49:03.953Z,22.49
2017-03-12T01:50:03.561Z,22.55
2017-03-12T01:51:03.610Z,22.51
2017-03-12T01:52:03.959Z,22.49
2017-03-12T01:53:04.069Z,22.46
2017-03-12T01:54:04.082Z,22.45
2017-03-12T01:55:04.035Z,22.52
2017-03-12T01:56:03.996Z,22.54
2017-03-12T01:57:04.039Z,22.47
2017-03-12T01:58:04.102Z,22.51
2017-03-12T01:59:04.103Z,22.57
2017-03-12T02:00:04.065Z,22.54
2017-03-12T02:01:04.066Z,22.52
2017-03-12T02:02:04.072Z,22.47
2017-03-12T02:03:04.082Z,22.52
2017-03-12T02:04:04.081Z,22.57
2017-03-12T02:05:03.688Z,22.52
2017-03-12T02:06:03.713Z,22.45
2017-03-12T02:07:04.053Z,22.39
2017-03-12T02:08:04.056Z,22.4
2017-03-12T02:09:04.111Z,22.39
2017-03-12T02:10:04.245Z,22.39
2017-03-12T02:11:03.730Z,22.47
2017-03-12T02:12:04.130Z,22.51
2017-03-12T02:13:04.139Z,22.46
2017-03-12T02:14:04.105Z,22.47
2017-03-12T02:15:04.109Z,22.46
2017-03-12T02:16:04.157Z,22.52
2017-03-12T02:17:04.107Z,22.54
2017-03-12T02:18:04.116Z,22.6
2017-03-12T02:19:04.182Z,22.54
2017-03-12T02:20:04.237Z,22.52
2017-03-12T02:21:04.134Z,22.55
2017-03-12T02:22:04.187Z,22.58
2017-03-12T02:23:03.801Z,22.6
2017-03-12T02:24:04.169Z,22.54
2017-03-12T02:25:04.310Z,22.51
2017-03-12T02:26:04.289Z,22.62
2017-03-12T02:27:04.174Z,22.7
2017-03-12T02:28:03.432Z,22.7
2017-03-12T02:29:03.836Z,22.65
2017-03-12T02:30:04.232Z,22.6
2017-03-12T02:31:04.214Z,22.57
2017-03-12T02:32:04.254Z,22.57
2017-03-12T02:33:04.199Z,22.6
2017-03-12T02:34:04.268Z,22.62
2017-03-12T02:35:03.879Z,22.58
2017-03-12T02:36:04.222Z,22.58
2017-03-12T02:37:04.225Z,22.57
2017-03-12T02:38:04.285Z,22.65
2017-03-12T02:39:04.254Z,22.62
2017-03-12T02:40:04.249Z,22.68
2017-03-12T02:41:04.305Z,22.68
2017-03-12T02:42:03.917Z,22.7
2017-03-12T02:43:04.263Z,22.72
2017-03-12T02:44:03.981Z,22.7
2017-03-12T02:45:04.374Z,22.64
2017-03-12T02:46:04.362Z,22.7
2017-03-12T02:47:04.361Z,22.8
2017-03-12T02:48:04.366Z,22.79
2017-03-12T02:49:04.309Z,22.75
2017-03-12T02:50:04.369Z,22.75
2017-03-12T02:51:04.411Z,22.76
2017-03-12T02:52:03.922Z,22.8
2017-03-12T02:53:04.467Z,22.79
2017-03-12T02:54:03.927Z,22.77
2017-03-12T02:55:04.383Z,22.79
2017-03-12T02:56:04.559Z,22.82
2017-03-12T02:57:03.659Z,22.8
2017-03-12T02:58:04.849Z,22.82
2017-03-12T02:59:05.075Z,22.8
2017-03-12T03:00:04.414Z,22.88
2017-03-12T03:01:03.979Z,22.83
2017-03-12T03:02:04.382Z,22.92
2017-03-12T03:03:04.376Z,22.88
2017-03-12T03:04:04.484Z,22.88
2017-03-12T03:05:04.407Z,22.86
2017-03-12T03:06:04.465Z,22.94
2017-03-12T03:07:04.169Z,22.86
2017-03-12T03:08:04.422Z,22.97
2017-03-12T03:09:04.115Z,22.92
2017-03-12T03:10:04.122Z,22.95
2017-03-12T03:11:04.442Z,22.92
2017-03-12T03:12:04.448Z,22.9
2017-03-12T03:13:04.486Z,22.94
2017-03-12T03:14:04.065Z,22.9
2017-03-12T03:15:04.557Z,23
2017-03-12T03:16:04.563Z,22.97
2017-03-12T03:17:03.789Z,22.94
2017-03-12T03:18:04.520Z,23.02
2017-03-12T03:19:04.130Z,22.95
2017-03-12T03:20:03.686Z,22.86
2017-03-12T03:21:04.508Z,22.98
2017-03-12T03:22:04.553Z,22.94
2017-03-12T03:23:04.102Z,23
2017-03-12T03:24:04.506Z,22.98
2017-03-12T03:25:04.566Z,22.97
2017-03-12T03:26:04.197Z,23
2017-03-12T03:27:04.580Z,22.97
2017-03-12T03:28:04.186Z,22.94
2017-03-12T03:29:04.587Z,22.98
2017-03-12T03:30:04.543Z,23.01
2017-03-12T03:31:04.611Z,22.91
2017-03-12T03:32:04.551Z,22.95
2017-03-12T03:33:04.620Z,23.04
2017-03-12T03:34:04.622Z,23.04
2017-03-12T03:35:04.238Z,23
2017-03-12T03:36:04.643Z,23
2017-03-12T03:37:04.189Z,23.17
2017-03-12T03:38:04.314Z,23.05
2017-03-12T03:39:04.589Z,23.07
2017-03-12T03:40:04.747Z,23.04
2017-03-12T03:41:04.337Z,23.01
2017-03-12T03:42:04.683Z,23.15
2017-03-12T03:43:04.642Z,23.16
2017-03-12T03:44:04.735Z,23.1
2017-03-12T03:45:04.338Z,23.2
2017-03-12T03:46:04.684Z,23.17
2017-03-12T03:47:04.271Z,23.16
2017-03-12T03:48:05.046Z,23.1
2017-03-12T03:49:04.768Z,23.17
2017-03-12T03:50:04.777Z,23.16
2017-03-12T03:51:04.271Z,23.17
2017-03-12T03:52:04.738Z,23.16
2017-03-12T03:53:04.713Z,23.16
2017-03-12T03:54:04.728Z,23.15
2017-03-12T03:55:05.796Z,23.2
2017-03-12T03:56:04.747Z,23.2
2017-03-12T03:57:04.816Z,23.2
2017-03-12T03:58:04.707Z,23.19
2017-03-12T03:59:05.227Z,23.2
2017-03-12T04:00:04.882Z,23.16
2017-03-12T04:01:04.791Z,23.22
2017-03-12T04:02:04.790Z,23.22
2017-03-12T04:03:04.787Z,23.2
2017-03-12T04:04:04.796Z,23.17
2017-03-12T04:05:05.155Z,23.16
2017-03-12T04:06:04.802Z,23.15
2017-03-12T04:07:04.426Z,23.17
2017-03-12T04:08:04.375Z,23.16
2017-03-12T04:09:04.465Z,23.17
2017-03-12T04:10:04.780Z,23.16
2017-03-12T04:11:04.786Z,23.17
2017-03-12T04:12:04.500Z,23.22
2017-03-12T04:13:04.904Z,23.16
2017-03-12T04:14:19.299Z,23.23
2017-03-12T04:15:04.861Z,23.27
2017-03-12T04:16:04.883Z,23.22
2017-03-12T04:17:04.477Z,23.22
2017-03-12T04:18:04.827Z,23.22
2017-03-12T04:19:04.940Z,23.17
2017-03-12T04:20:04.857Z,23.16
2017-03-12T04:21:04.868Z,23.16
2017-03-12T04:22:04.856Z,23.2
2017-03-12T04:23:04.912Z,23.2
2017-03-12T04:24:04.938Z,23.2
2017-03-12T04:25:04.919Z,23.23
2017-03-12T04:26:04.491Z,23.25
2017-03-12T04:27:04.485Z,23.25
2017-03-12T04:28:04.893Z,23.2
2017-03-12T04:29:04.898Z,23.2
2017-03-12T04:30:04.899Z,23.17
2017-03-12T04:31:04.974Z,23.12
2017-03-12T04:32:04.566Z,23.28
2017-03-12T04:33:05.061Z,23.16
2017-03-12T04:34:05.074Z,23.12
2017-03-12T04:35:05.040Z,23.23
2017-03-12T04:36:04.935Z,23.23
2017-03-12T04:37:04.963Z,23.23
2017-03-12T04:38:06.521Z,23.31
2017-03-12T04:39:04.957Z,23.22
2017-03-12T04:40:05.058Z,23.23
2017-03-12T04:41:04.969Z,23.12
2017-03-12T04:42:04.642Z,23.2
2017-03-12T04:43:05.075Z,23.15
2017-03-12T04:44:33.988Z,23.31
2017-03-12T04:45:04.993Z,23.32
2017-03-12T04:46:04.619Z,23.33
2017-03-12T04:47:05.017Z,23.22
2017-03-12T04:48:05.111Z,23.32
2017-03-12T04:49:05.121Z,23.25
2017-03-12T04:50:05.038Z,23.31
2017-03-12T04:51:05.099Z,23.32
2017-03-12T04:52:05.082Z,23.28
2017-03-12T04:53:05.059Z,23.33
2017-03-12T04:54:05.195Z,23.31
2017-03-12T04:55:05.052Z,23.25
2017-03-12T04:56:05.112Z,23.36
2017-03-12T04:57:05.074Z,23.31
2017-03-12T04:58:05.280Z,23.33
2017-03-12T04:59:05.083Z,23.33
2017-03-12T05:00:05.389Z,23.32
2017-03-12T05:01:04.721Z,23.32
2017-03-12T05:02:05.145Z,23.35
2017-03-12T05:03:05.104Z,23.32
2017-03-12T05:04:05.154Z,23.27
2017-03-12T05:05:05.162Z,23.35
2017-03-12T05:06:05.217Z,23.33
2017-03-12T05:07:05.133Z,23.4
2017-03-12T05:08:04.755Z,23.39
2017-03-12T05:09:05.188Z,23.48
2017-03-12T05:10:05.146Z,23.4
2017-03-12T05:11:05.203Z,23.35
2017-03-12T05:12:04.468Z,23.36
2017-03-12T05:13:05.272Z,23.39
2017-03-12T05:14:06.566Z,23.43
2017-03-12T05:15:05.212Z,23.38
2017-03-12T05:16:04.782Z,23.42
2017-03-12T05:17:04.891Z,23.43
2017-03-12T05:18:05.198Z,23.35
2017-03-12T05:19:04.848Z,23.36
2017-03-12T05:20:04.810Z,23.39
2017-03-12T05:21:05.266Z,23.42
2017-03-12T05:22:05.287Z,23.4
2017-03-12T05:23:05.266Z,23.36
2017-03-12T05:24:04.841Z,23.47
2017-03-12T05:25:04.877Z,23.42
2017-03-12T05:26:05.337Z,23.48
2017-03-12T05:27:05.240Z,23.42
2017-03-12T05:28:04.866Z,23.42
2017-03-12T05:29:05.319Z,23.46
2017-03-12T05:30:05.280Z,23.39
2017-03-12T05:31:05.274Z,23.46
2017-03-12T05:32:05.270Z,23.43
2017-03-12T05:33:05.282Z,23.43
2017-03-12T05:34:05.315Z,23.43
2017-03-12T05:35:05.356Z,23.53
2017-03-12T05:36:05.455Z,23.53
2017-03-12T05:37:05.402Z,23.48
2017-03-12T05:38:05.002Z,23.43
2017-03-12T05:39:04.937Z,23.46
2017-03-12T05:40:05.373Z,23.42
2017-03-12T05:41:05.333Z,23.4
2017-03-12T05:42:05.360Z,23.51
2017-03-12T05:43:05.391Z,23.51
2017-03-12T05:44:34.301Z,23.55
2017-03-12T05:45:05.401Z,23.57
2017-03-12T05:46:05.675Z,23.5
2017-03-12T05:47:05.015Z,23.43
2017-03-12T05:48:05.377Z,23.43
2017-03-12T05:49:05.456Z,23.42
2017-03-12T05:50:05.482Z,23.48
2017-03-12T05:51:05.486Z,23.53
2017-03-12T05:52:05.463Z,23.57
2017-03-12T05:53:05.469Z,23.6
2017-03-12T05:54:05.460Z,23.55
2017-03-12T05:55:05.420Z,23.54
2017-03-12T05:56:05.417Z,23.57
2017-03-12T05:57:05.474Z,23.61
2017-03-12T05:58:05.140Z,23.54
2017-03-12T05:59:05.141Z,23.57
2017-03-12T06:00:05.542Z,23.65
2017-03-12T06:01:05.118Z,23.63
2017-03-12T06:02:05.479Z,23.63
2017-03-12T06:03:05.514Z,23.63
2017-03-12T06:04:05.475Z,23.55
2017-03-12T06:05:05.524Z,23.63
2017-03-12T06:06:05.485Z,23.68
2017-03-12T06:07:04.805Z,23.54
2017-03-12T06:08:05.542Z,23.61
2017-03-12T06:09:05.549Z,23.61
2017-03-12T06:10:05.607Z,23.7
2017-03-12T06:11:05.565Z,23.69
2017-03-12T06:12:05.614Z,23.75
2017-03-12T06:13:05.521Z,23.68
2017-03-12T06:14:05.742Z,23.69
2017-03-12T06:15:05.173Z,23.73
2017-03-12T06:16:05.538Z,23.78
2017-03-12T06:17:05.203Z,23.78
2017-03-12T06:18:05.651Z,23.76
2017-03-12T06:19:05.665Z,23.85
2017-03-12T06:20:05.565Z,23.88
2017-03-12T06:21:05.618Z,23.84
2017-03-12T06:22:05.575Z,23.79
2017-03-12T06:23:05.601Z,23.9
2017-03-12T06:24:05.303Z,23.85
2017-03-12T06:25:04.857Z,23.85
2017-03-12T06:26:05.628Z,23.87
2017-03-12T06:27:05.213Z,23.83
2017-03-12T06:28:05.671Z,23.87
2017-03-12T06:29:05.672Z,23.98
2017-03-12T06:30:05.286Z,23.97
2017-03-12T06:31:05.728Z,23.95
2017-03-12T06:32:05.657Z,23.95
2017-03-12T06:33:05.719Z,23.97
2017-03-12T06:34:05.711Z,24.02
2017-03-12T06:35:05.661Z,24.06
2017-03-12T06:36:05.314Z,24.02
2017-03-12T06:37:05.771Z,23.98
2017-03-12T06:38:05.784Z,24.05
2017-03-12T06:39:05.337Z,24.08
2017-03-12T06:40:05.738Z,24.08
2017-03-12T06:41:05.703Z,24.05
2017-03-12T06:42:05.365Z,24.1
2017-03-12T06:43:05.717Z,24.15
2017-03-12T06:44:05.388Z,24.13
2017-03-12T06:45:05.427Z,24.21
2017-03-12T06:46:05.730Z,24.18
2017-03-12T06:47:05.739Z,24.24
2017-03-12T06:48:05.797Z,24.2
2017-03-12T06:49:05.818Z,24.22
2017-03-12T06:50:05.024Z,24.22
2017-03-12T06:51:05.767Z,24.25
2017-03-12T06:52:05.373Z,24.22
2017-03-12T06:53:05.846Z,24.2
2017-03-12T06:54:05.781Z,24.16
2017-03-12T06:55:05.446Z,24.16
2017-03-12T06:56:05.843Z,24.21
2017-03-12T06:57:05.402Z,24.16
2017-03-12T06:58:05.967Z,24.12
2017-03-12T06:59:05.835Z,24.05
2017-03-12T07:00:05.878Z,24.2
2017-03-12T07:01:05.947Z,24.24
2017-03-12T07:02:05.881Z,24.13
2017-03-12T07:03:05.450Z,24.27
2017-03-12T07:04:05.909Z,24.27
2017-03-12T07:05:05.588Z,24.24
2017-03-12T07:06:05.923Z,24.3
2017-03-12T07:07:05.875Z,24.35
2017-03-12T07:08:05.877Z,24.3
2017-03-12T07:09:05.882Z,24.32
2017-03-12T07:10:05.957Z,24.34
2017-03-12T07:11:06.001Z,24.3
2017-03-12T07:12:05.548Z,24.39
2017-03-12T07:13:06.109Z,24.42
2017-03-12T07:14:07.476Z,24.28
2017-03-12T07:15:05.975Z,24.27
2017-03-12T07:16:05.592Z,24.42
2017-03-12T07:17:06.035Z,24.34
2017-03-12T07:18:05.649Z,24.37
2017-03-12T07:19:06.017Z,24.34
2017-03-12T07:20:05.960Z,24.27
2017-03-12T07:21:05.967Z,24.32
2017-03-12T07:22:06.060Z,24.27
2017-03-12T07:23:05.969Z,24.31
2017-03-12T07:24:06.028Z,24.28
2017-03-12T07:25:06.004Z,24.32
2017-03-12T07:26:06.055Z,24.28
2017-03-12T07:27:05.661Z,24.35
2017-03-12T07:28:06.004Z,24.22
2017-03-12T07:29:06.121Z,24.28
2017-03-12T07:30:06.124Z,24.31
2017-03-12T07:31:06.073Z,24.25
2017-03-12T07:32:06.030Z,24.31
2017-03-12T07:33:06.045Z,24.24
2017-03-12T07:34:06.104Z,24.25
2017-03-12T07:35:06.368Z,24.27
2017-03-12T07:36:05.716Z,24.3
2017-03-12T07:37:06.087Z,24.35
2017-03-12T07:38:05.785Z,24.4
2017-03-12T07:39:06.890Z,24.43
2017-03-12T07:40:06.134Z,24.39
2017-03-12T07:41:06.140Z,24.42
2017-03-12T07:42:05.752Z,24.46
2017-03-12T07:43:06.104Z,24.42
2017-03-12T07:44:20.836Z,24.34
2017-03-12T07:45:06.216Z,24.32
2017-03-12T07:46:06.139Z,24.4
2017-03-12T07:47:05.782Z,24.28
2017-03-12T07:48:05.892Z,24.35
2017-03-12T07:49:06.191Z,24.39
2017-03-12T07:50:06.146Z,24.34
2017-03-12T07:51:06.208Z,24.35
2017-03-12T07:52:05.762Z,24.35
2017-03-12T07:53:06.230Z,24.31
2017-03-12T07:54:06.231Z,24.28
2017-03-12T07:55:06.233Z,24.21
2017-03-12T07:56:06.644Z,24.21
2017-03-12T07:57:05.807Z,24.22
2017-03-12T07:58:06.253Z,24.09
2017-03-12T07:59:06.210Z,24.22
2017-03-12T08:00:06.345Z,24.27
2017-03-12T08:01:06.222Z,24.21
2017-03-12T08:02:06.284Z,24.09
2017-03-12T08:03:06.243Z,24.12
2017-03-12T08:04:06.556Z,24.09
2017-03-12T08:05:05.874Z,24.03
2017-03-12T08:06:06.329Z,24.08
2017-03-12T08:07:06.362Z,24.05
2017-03-12T08:08:06.399Z,24.05
2017-03-12T08:09:06.404Z,24.1
2017-03-12T08:10:06.631Z,24.09
2017-03-12T08:11:05.957Z,24.02
2017-03-12T08:12:06.346Z,24.03
2017-03-12T08:13:06.367Z,23.98
2017-03-12T08:14:06.362Z,23.98
2017-03-12T08:15:05.981Z,24.3
2017-03-12T08:16:06.442Z,25.15
2017-03-12T08:17:06.050Z,25.79
2017-03-12T08:18:07.156Z,25.98
2017-03-12T08:19:05.605Z,26.12
2017-03-12T08:20:06.065Z,26.48
2017-03-12T08:21:06.412Z,26.75
2017-03-12T08:22:06.423Z,26.81
2017-03-12T08:23:05.988Z,27.09
2017-03-12T08:24:05.989Z,27.51
2017-03-12T08:25:06.461Z,27.49
2017-03-12T08:26:06.059Z,27.75
2017-03-12T08:27:06.915Z,27.93
2017-03-12T08:28:06.427Z,28.06
2017-03-12T08:29:06.432Z,28.17
2017-03-12T08:30:06.093Z,28.18
2017-03-12T08:31:06.552Z,28.43
2017-03-12T08:32:06.505Z,28.43
2017-03-12T08:33:06.523Z,28.46
2017-03-12T08:34:06.572Z,28.61
2017-03-12T08:35:06.501Z,28.74
2017-03-12T08:36:06.597Z,28.58
2017-03-12T08:37:06.556Z,28.18
2017-03-12T08:38:06.116Z,27.82
2017-03-12T08:39:06.575Z,27.75
2017-03-12T08:40:06.580Z,28
2017-03-12T08:41:06.543Z,28.18
2017-03-12T08:42:06.653Z,27.93
2017-03-12T08:43:06.178Z,27.25
2017-03-12T08:44:07.829Z,27.04
2017-03-12T08:45:05.887Z,26.84
2017-03-12T08:46:06.642Z,26.72
2017-03-12T08:47:06.608Z,26.65
2017-03-12T08:48:06.607Z,26.66
2017-03-12T08:49:06.612Z,26.81
2017-03-12T08:50:06.744Z,26.95
2017-03-12T08:51:06.691Z,27.1
2017-03-12T08:52:06.751Z,27.37
2017-03-12T08:53:06.252Z,27.55
2017-03-12T08:54:06.710Z,27.28
2017-03-12T08:55:06.737Z,26.97
2017-03-12T08:56:06.723Z,26.63
2017-03-12T08:57:06.338Z,26.18
2017-03-12T08:58:06.357Z,25.91
2017-03-12T08:59:06.763Z,25.54
2017-03-12T09:00:06.795Z,25.13
2017-03-12T09:01:06.815Z,24.9
2017-03-12T09:02:06.791Z,24.83
2017-03-12T09:03:06.832Z,24.84
2017-03-12T09:04:06.746Z,24.83
2017-03-12T09:05:06.867Z,24.83
2017-03-12T09:06:06.861Z,24.81
2017-03-12T09:07:06.766Z,25.05
2017-03-12T09:08:06.881Z,25.03
2017-03-12T09:09:06.782Z,25.08
2017-03-12T09:10:06.842Z,25.2
2017-03-12T09:11:06.503Z,25.18
2017-03-12T09:12:06.851Z,25.14
2017-03-12T09:13:06.518Z,25.32
2017-03-12T09:14:06.872Z,25.39
2017-03-12T09:15:06.992Z,25.18
2017-03-12T09:16:06.892Z,25.5
2017-03-12T09:17:06.892Z,25.82
2017-03-12T09:18:06.477Z,26.01
2017-03-12T09:19:06.908Z,26.7
2017-03-12T09:20:06.875Z,26.85
2017-03-12T09:21:07.050Z,26.94
2017-03-12T09:22:06.893Z,27.09
2017-03-12T09:23:06.944Z,27.09
2017-03-12T09:24:06.534Z,27.13
2017-03-12T09:25:06.919Z,27.32
2017-03-12T09:26:07.032Z,27.17
2017-03-12T09:27:06.603Z,27.14
2017-03-12T09:28:06.609Z,27.19
2017-03-12T09:29:06.962Z,27.13
2017-03-12T09:30:06.954Z,26.99
2017-03-12T09:31:07.071Z,26.51
2017-03-12T09:32:07.072Z,26.07
2017-03-12T09:33:08.085Z,25.58
2017-03-12T09:34:06.986Z,25.17
2017-03-12T09:35:07.469Z,25
2017-03-12T09:36:06.998Z,24.62
2017-03-12T09:37:07.107Z,24.52
2017-03-12T09:38:07.031Z,24.31
2017-03-12T09:39:07.143Z,24.34
2017-03-12T09:40:06.728Z,24.13
2017-03-12T09:41:06.651Z,24.06
2017-03-12T09:42:07.054Z,23.94
2017-03-12T09:43:07.104Z,23.79
2017-03-12T09:44:09.727Z,23.78
2017-03-12T09:45:06.770Z,23.73
2017-03-12T09:46:07.189Z,23.79
2017-03-12T09:47:07.148Z,23.76
2017-03-12T09:48:06.834Z,23.69
2017-03-12T09:49:07.160Z,23.69
2017-03-12T09:50:07.122Z,23.72
2017-03-12T09:51:07.172Z,23.69
2017-03-12T09:52:07.193Z,23.58
2017-03-12T09:53:07.187Z,23.61
2017-03-12T09:54:07.201Z,23.65
2017-03-12T09:55:07.197Z,23.6
2017-03-12T09:56:07.205Z,23.68
2017-03-12T09:57:06.859Z,23.63
2017-03-12T09:58:07.775Z,23.61
2017-03-12T09:59:07.233Z,23.66
2017-03-12T10:00:07.260Z,23.66
2017-03-12T10:01:07.194Z,23.61
2017-03-12T10:02:06.942Z,23.57
2017-03-12T10:03:07.161Z,23.66
2017-03-12T10:04:07.281Z,23.6
2017-03-12T10:05:07.274Z,23.53
2017-03-12T10:06:07.215Z,23.53
2017-03-12T10:07:07.226Z,23.54
2017-03-12T10:08:07.393Z,23.36
2017-03-12T10:09:07.902Z,23.43
2017-03-12T10:10:07.325Z,23.35
2017-03-12T10:11:07.309Z,23.32
2017-03-12T10:12:07.276Z,23.27
2017-03-12T10:13:07.331Z,23.35
2017-03-12T10:15:07.342Z,23.2
2017-03-12T10:16:07.341Z,23.2
2017-03-12T10:17:07.389Z,23.22
2017-03-12T10:18:07.433Z,23.2
2017-03-12T10:19:06.918Z,23.16
2017-03-12T10:20:06.908Z,23.19
2017-03-12T10:21:07.393Z,23.1
2017-03-12T10:22:06.922Z,23.1
2017-03-12T10:23:07.377Z,23.12
2017-03-12T10:24:07.424Z,23.07
2017-03-12T10:25:07.402Z,23.07
2017-03-12T10:26:07.393Z,23.12
2017-03-12T10:27:07.476Z,23
2017-03-12T10:28:07.434Z,23.02
2017-03-12T10:29:07.414Z,23.01
2017-03-12T10:30:07.425Z,23.02
2017-03-12T10:31:06.980Z,23.01
2017-03-12T10:32:07.491Z,23
2017-03-12T10:33:07.511Z,22.91
2017-03-12T10:34:06.994Z,22.92
2017-03-12T10:35:07.059Z,22.97
2017-03-12T10:36:07.469Z,22.92
2017-03-12T10:37:07.053Z,22.86
2017-03-12T10:38:07.572Z,22.86
2017-03-12T10:39:07.483Z,22.86
2017-03-12T10:40:07.489Z,22.92
2017-03-12T10:41:07.105Z,22.85
2017-03-12T10:42:07.058Z,22.94
2017-03-12T10:43:07.522Z,22.92
2017-03-12T10:44:07.123Z,22.83
2017-03-12T10:45:07.184Z,22.86
2017-03-12T10:46:07.570Z,22.82
2017-03-12T10:47:07.189Z,22.73
2017-03-12T10:48:07.488Z,22.79
2017-03-12T10:49:07.556Z,22.73
2017-03-12T10:50:07.489Z,22.75
2017-03-12T10:51:07.558Z,22.7
2017-03-12T10:52:07.619Z,22.72
2017-03-12T10:53:07.512Z,22.83
2017-03-12T10:54:07.175Z,22.73
2017-03-12T10:55:07.680Z,22.68
2017-03-12T10:56:07.548Z,22.73
2017-03-12T10:57:07.608Z,22.65
2017-03-12T10:58:07.206Z,22.65
2017-03-12T10:59:07.596Z,22.68
2017-03-12T11:00:07.161Z,22.68
2017-03-12T11:01:07.631Z,22.61
2017-03-12T11:02:07.190Z,22.62
2017-03-12T11:03:07.675Z,22.62
2017-03-12T11:04:07.680Z,22.64
2017-03-12T11:05:07.205Z,22.57
2017-03-12T11:06:07.258Z,22.58
2017-03-12T11:07:07.650Z,22.6
2017-03-12T11:08:07.617Z,22.6
2017-03-12T11:09:07.623Z,22.61
2017-03-12T11:10:07.271Z,22.61
2017-03-12T11:11:07.623Z,22.61
2017-03-12T11:12:07.680Z,22.6
2017-03-12T11:13:07.295Z,22.57
2017-03-12T11:14:07.699Z,22.52
2017-03-12T11:15:07.316Z,22.54
2017-03-12T11:16:07.704Z,22.58
2017-03-12T11:17:07.265Z,22.55
2017-03-12T11:18:07.715Z,22.51
2017-03-12T11:19:07.674Z,22.52
2017-03-12T11:20:07.743Z,22.49
2017-03-12T11:21:07.718Z,22.47
2017-03-12T11:22:07.705Z,22.61
2017-03-12T11:23:07.802Z,22.51
2017-03-12T11:24:07.813Z,22.57
2017-03-12T11:25:07.311Z,22.46
2017-03-12T11:26:07.819Z,22.61
2017-03-12T11:27:07.779Z,22.57
2017-03-12T11:28:07.826Z,22.57
2017-03-12T11:29:07.794Z,22.61
2017-03-12T11:30:07.805Z,22.6
2017-03-12T11:31:07.792Z,22.61
2017-03-12T11:32:08.049Z,22.55
2017-03-12T11:33:07.770Z,22.51
2017-03-12T11:34:07.810Z,22.46
2017-03-12T11:35:07.819Z,22.51
2017-03-12T11:36:07.790Z,22.51
2017-03-12T11:37:07.093Z,22.37
2017-03-12T11:38:07.500Z,22.45
2017-03-12T11:39:07.843Z,22.39
2017-03-12T11:40:07.901Z,22.35
2017-03-12T11:41:07.864Z,22.36
2017-03-12T11:42:07.465Z,22.36
2017-03-12T11:43:07.873Z,22.37
2017-03-12T11:44:07.878Z,22.36
2017-03-12T11:45:07.439Z,22.42
2017-03-12T11:46:07.944Z,22.39
2017-03-12T11:47:07.444Z,22.42
2017-03-12T11:48:07.903Z,22.42
2017-03-12T11:49:07.506Z,22.35
2017-03-12T11:50:07.858Z,22.37
2017-03-12T11:51:07.920Z,22.46
2017-03-12T11:52:07.938Z,22.37
2017-03-12T11:53:07.888Z,22.3
2017-03-12T11:54:07.983Z,22.25
2017-03-12T11:55:07.549Z,22.3
2017-03-12T11:56:07.905Z,22.27
2017-03-12T11:57:07.555Z,22.3
2017-03-12T11:58:07.958Z,22.33
2017-03-12T11:59:07.989Z,22.25
2017-03-12T12:00:07.970Z,22.28
2017-03-12T12:01:07.927Z,22.28
2017-03-12T12:02:07.989Z,22.33
2017-03-12T12:03:07.989Z,22.25
2017-03-12T12:04:07.939Z,22.22
2017-03-12T12:05:07.564Z,22.28
2017-03-12T12:06:07.627Z,22.2
2017-03-12T12:07:08.025Z,22.2
2017-03-12T12:08:08.066Z,22.25
2017-03-12T12:09:07.974Z,22.35
2017-03-12T12:10:08.060Z,22.22
2017-03-12T12:11:07.983Z,22.31
2017-03-12T12:12:08.041Z,22.27
2017-03-12T12:13:07.655Z,22.31
2017-03-12T12:14:07.621Z,22.24
2017-03-12T12:15:08.162Z,22.22
2017-03-12T12:16:08.069Z,22.24
2017-03-12T12:17:07.297Z,22.21
2017-03-12T12:18:08.024Z,22.24
2017-03-12T12:19:07.690Z,22.22
2017-03-12T12:20:08.036Z,22.36
2017-03-12T12:21:08.094Z,22.24
2017-03-12T12:22:08.113Z,22.21
2017-03-12T12:23:08.064Z,22.31
2017-03-12T12:24:07.672Z,22.21
2017-03-12T12:25:07.778Z,22.25
2017-03-12T12:26:08.073Z,22.25
2017-03-12T12:27:08.100Z,22.35
2017-03-12T12:28:08.105Z,22.28
2017-03-12T12:29:08.103Z,22.27
2017-03-12T12:30:07.804Z,22.24
2017-03-12T12:31:08.109Z,22.33
2017-03-12T12:32:08.113Z,22.35
2017-03-12T12:33:08.144Z,22.24
2017-03-12T12:34:08.187Z,22.33
2017-03-12T12:35:07.737Z,22.33
2017-03-12T12:36:08.183Z,22.25
2017-03-12T12:37:08.140Z,22.22
2017-03-12T12:38:08.145Z,22.3
2017-03-12T12:39:07.759Z,22.33
2017-03-12T12:40:08.157Z,22.24
2017-03-12T12:41:08.171Z,22.25
2017-03-12T12:42:08.240Z,22.3
2017-03-12T12:43:08.184Z,22.31
2017-03-12T12:44:08.294Z,22.35
2017-03-12T12:45:08.255Z,22.25
2017-03-12T12:46:08.355Z,22.27
2017-03-12T12:47:08.223Z,22.31
2017-03-12T12:48:08.265Z,22.25
2017-03-12T12:49:07.867Z,22.24
2017-03-12T12:50:07.842Z,22.24
2017-03-12T12:51:08.246Z,22.28
2017-03-12T12:52:08.294Z,22.33
2017-03-12T12:53:07.872Z,22.25
2017-03-12T12:54:08.245Z,22.28
2017-03-12T12:55:08.321Z,22.25
2017-03-12T12:56:08.309Z,22.25
2017-03-12T12:57:08.260Z,22.22